Time;durP1;ratioP1;P1;durP2;ratioP2;P2;SDS_P1;SDS_P2;PMS_P1;PMS_P2;Temp;Humidity;BMP_temperature;BMP_pressure;BME280_temperature;BME280_humidity;BME280_pressure;Samples;Min_cycle;Max_cycle;Signal;HPM_P1;HPM_P2
2021/09/17 00:00:10;;;;;;;52.15;41.22;;;19.00;99.90;;;19.44;75.88;101666.34;5114185;28;20376;-73
2021/09/17 00:02:44;;;;;;;58.45;44.30;;;19.10;99.90;;;19.54;75.30;101675.91;5113528;28;20048;-73
2021/09/17 00:05:13;;;;;;;57.72;42.47;;;19.10;99.90;;;19.54;75.15;101678.59;5113885;28;20108;-73
2021/09/17 00:07:42;;;;;;;56.85;42.80;;;19.10;99.90;;;19.58;74.89;101675.81;5113744;28;20036;-73
2021/09/17 00:10:12;;;;;;;55.97;42.17;;;19.10;99.90;;;19.59;74.75;101671.28;5114005;28;20126;-73
2021/09/17 00:12:42;;;;;;;53.40;41.35;;;19.10;99.90;;;19.66;74.49;101670.22;5114352;28;20047;-73
2021/09/17 00:15:13;;;;;;;56.38;43.17;;;19.20;99.90;;;19.64;74.23;101664.88;5095663;28;20048;-73
2021/09/17 00:17:44;;;;;;;54.47;42.58;;;19.20;99.90;;;19.43;74.11;101624.38;5113721;28;20046;-73
2021/09/17 00:20:15;;;;;;;55.92;41.47;;;19.20;99.90;;;19.64;73.97;101659.53;5095425;28;20051;-73
2021/09/17 00:22:46;;;;;;;53.08;41.42;;;19.30;99.90;;;19.74;73.79;101668.19;5113887;28;20390;-73
2021/09/17 00:25:15;;;;;;;48.75;38.88;;;19.30;99.90;;;19.88;73.38;101668.63;5113892;28;20043;-73
2021/09/17 00:27:44;;;;;;;48.10;39.17;;;19.40;99.90;;;19.95;73.11;101663.97;5113490;28;20043;-73
2021/09/17 00:30:14;;;;;;;50.22;38.83;;;19.40;99.90;;;19.92;72.91;101654.19;5113763;28;20058;-73
2021/09/17 00:32:45;;;;;;;49.45;38.97;;;19.50;99.90;;;19.99;72.76;101658.47;5113514;28;20044;-73
2021/09/17 00:35:14;;;;;;;45.88;37.65;;;19.50;99.90;;;19.83;72.58;101619.56;5113404;28;20101;-73
2021/09/17 00:37:44;;;;;;;44.30;35.63;;;19.60;99.90;;;20.14;72.08;101657.09;5113443;28;20055;-73
2021/09/17 00:40:14;;;;;;;44.03;35.75;;;19.60;99.90;;;20.11;72.03;101655.38;5113359;28;20489;-73
2021/09/17 00:42:43;;;;;;;43.30;35.88;;;19.60;99.90;;;20.06;71.90;101667.19;5113694;28;20043;-73
2021/09/17 00:45:14;;;;;;;43.93;35.37;;;19.60;99.90;;;20.14;71.88;101654.41;5095056;28;20040;-73
2021/09/17 00:47:45;;;;;;;46.80;37.35;;;19.60;99.90;;;19.55;72.37;101563.13;5113476;28;20044;-73
2021/09/17 00:50:17;;;;;;;47.33;36.92;;;19.60;99.90;;;19.84;72.87;101623.13;5113337;28;20047;-73
2021/09/17 00:52:49;;;;;;;44.97;35.78;;;19.50;99.90;;;19.93;72.74;101649.72;5113309;28;20061;-73
2021/09/17 00:55:18;;;;;;;42.85;34.22;;;19.50;99.90;;;19.92;72.71;101643.44;5113634;28;20126;-74
2021/09/17 00:57:48;;;;;;;43.83;36.15;;;19.50;99.90;;;19.35;72.75;101548.56;5113182;28;20043;-73
2021/09/17 01:00:19;;;;;;;43.13;34.05;;;19.40;99.90;;;19.89;72.82;101639.97;5113629;28;20063;-73
2021/09/17 01:02:49;;;;;;;40.97;33.45;;;19.40;99.90;;;19.87;72.97;101642.72;5095272;28;20047;-73
2021/09/17 01:05:19;;;;;;;41.53;34.35;;;19.40;99.90;;;19.92;72.59;101638.06;5113222;28;20493;-73
2021/09/17 01:07:48;;;;;;;40.60;33.47;;;19.40;99.90;;;19.92;72.52;101630.03;5113711;28;20047;-73
2021/09/17 01:10:16;;;;;;;41.58;32.75;;;19.40;99.90;;;19.58;72.43;101556.81;5113461;28;20046;-74
2021/09/17 01:12:47;;;;;;;37.22;32.08;;;19.50;99.90;;;20.03;72.41;101644.03;5113371;28;20044;-73
2021/09/17 01:15:16;;;;;;;41.90;32.35;;;19.60;99.90;;;20.05;72.53;101625.16;5115256;28;20048;-73
2021/09/17 01:17:46;;;;;;;41.50;33.33;;;19.60;99.90;;;20.10;72.51;101618.72;5117245;28;20044;-73
2021/09/17 01:20:18;;;;;;;40.85;34.67;;;19.60;99.90;;;19.26;71.78;101460.28;5116966;28;20063;-74
2021/09/17 01:22:51;;;;;;;42.00;34.47;;;19.60;99.90;;;20.22;71.58;101609.41;5117296;28;20054;-73
2021/09/17 01:25:22;;;;;;;45.65;37.33;;;19.70;99.90;;;20.23;71.38;101603.09;5117286;28;20040;-74
2021/09/17 01:27:53;;;;;;;49.78;39.30;;;19.80;99.90;;;20.24;71.36;101597.69;5117115;28;20407;-73
2021/09/17 01:30:24;;;;;;;44.45;36.40;;;19.80;99.90;;;20.33;71.55;101612.63;5117014;28;20050;-73
2021/09/17 01:32:53;;;;;;;45.10;35.72;;;19.80;99.90;;;20.37;71.54;101606.22;5117102;28;20043;-73
2021/09/17 01:35:24;;;;;;;48.85;39.78;;;19.90;99.90;;;20.29;71.62;101598.41;5116674;28;20097;-73
2021/09/17 01:37:55;;;;;;;43.35;35.92;;;19.90;99.90;;;20.16;71.79;101574.66;5116963;28;20035;-74
2021/09/17 01:40:24;;;;;;;43.45;32.85;;;19.90;99.90;;;20.34;71.94;101590.22;5116633;28;20044;-73
2021/09/17 01:42:53;;;;;;;52.47;40.08;;;19.90;99.90;;;20.19;72.24;101594.25;5116548;28;20092;-73
2021/09/17 01:45:24;;;;;;;49.70;37.85;;;19.80;99.90;;;19.92;72.56;101552.13;5098233;28;20412;-73
2021/09/17 01:47:52;;;;;;;;;;;19.80;99.90;;;20.15;72.85;101591.72;5116991;28;20500;-73
2021/09/17 01:50:21;;;;;;;55.15;41.28;;;19.70;99.90;;;20.10;73.17;101593.66;5116245;28;20376;-73
2021/09/17 01:52:50;;;;;;;58.22;43.58;;;19.70;99.90;;;20.09;73.45;101590.06;5116306;28;20043;-73
2021/09/17 01:55:23;;;;;;;55.67;41.90;;;19.60;99.90;;;20.16;73.23;101585.41;5116302;28;20123;-73
2021/09/17 01:57:54;;;;;;;60.45;44.90;;;19.60;99.90;;;20.15;73.51;101581.81;5116487;28;20067;-74
2021/09/17 02:00:23;;;;;;;;;;;19.70;99.90;;;20.06;73.47;101559.75;5116698;28;20047;-73
2021/09/17 02:02:52;;;;;;;67.13;48.38;;;19.70;99.90;;;20.19;73.60;101578.13;5116151;28;19964;-73
2021/09/17 02:05:21;;;;;;;71.97;52.17;;;19.70;99.90;;;20.21;73.88;101578.97;5116105;28;20047;-73
2021/09/17 02:07:50;;;;;;;78.50;54.83;;;19.70;99.90;;;20.22;74.33;101577.16;5116322;28;20051;-74
2021/09/17 02:10:22;;;;;;;82.07;56.80;;;19.70;99.90;;;20.27;74.44;101578.78;5115961;28;20046;-74
2021/09/17 02:12:51;;;;;;;86.43;59.92;;;19.80;99.90;;;20.04;74.80;101532.06;5116047;28;20450;-73
2021/09/17 02:15:20;;;;;;;85.95;58.88;;;19.80;99.90;;;20.39;74.92;101572.13;5115859;28;20043;-73
2021/09/17 02:17:48;;;;;;;84.22;59.75;;;19.90;99.90;;;20.42;74.91;101572.88;5116159;28;20040;-73
2021/09/17 02:20:17;;;;;;;76.95;54.70;;;19.90;99.90;;;20.31;75.54;101572.38;5115800;28;20044;-73
2021/09/17 02:22:46;;;;;;;79.72;54.90;;;19.80;99.90;;;20.11;75.69;101547.06;5115778;28;20046;-74
2021/09/17 02:25:15;;;;;;;74.85;53.83;;;19.80;99.90;;;20.26;76.15;101568.97;5115797;28;20031;-73
2021/09/17 02:27:47;;;;;;;78.50;56.22;;;19.80;99.90;;;20.09;76.27;101540.88;5115905;28;20415;-74
2021/09/17 02:30:17;;;;;;;76.97;53.22;;;19.70;99.90;;;20.30;75.95;101567.94;5115633;28;20039;-74
2021/09/17 02:32:46;;;;;;;70.03;49.42;;;19.80;99.90;;;20.13;75.51;101534.47;5115943;28;20396;-74
2021/09/17 02:35:15;;;;;;;71.03;49.15;;;19.80;99.90;;;20.34;75.28;101557.97;5115481;28;20055;-74
2021/09/17 02:37:44;;;;;;;71.70;51.53;;;19.80;99.90;;;20.24;75.33;101548.44;5097483;28;20545;-74
2021/09/17 02:40:17;;;;;;;74.72;51.95;;;19.80;99.90;;;20.17;75.38;101522.69;5115723;28;20043;-74
2021/09/17 02:42:48;;;;;;;70.82;49.75;;;19.80;99.90;;;20.23;75.26;101520.69;5115729;28;20456;-74
2021/09/17 02:45:17;;;;;;;71.35;49.53;;;19.90;99.90;;;20.42;75.31;101554.06;5115624;28;20036;-74
2021/09/17 02:47:46;;;;;;;68.35;50.10;;;19.90;99.90;;;20.41;75.15;101544.25;5096960;28;20455;-74
2021/09/17 02:50:16;;;;;;;71.05;49.55;;;19.90;99.90;;;20.49;74.90;101547.56;5115132;28;20040;-74
2021/09/17 02:52:45;;;;;;;70.18;50.03;;;20.00;99.90;;;20.47;74.83;101545.84;5115734;28;20074;-74
2021/09/17 02:55:14;;;;;;;66.63;48.78;;;20.00;99.90;;;20.39;75.19;101537.19;5115322;28;20086;-74
2021/09/17 02:57:44;;;;;;;65.47;48.70;;;20.00;99.90;;;20.50;74.85;101543.94;5115353;28;20126;-74
2021/09/17 03:00:16;;;;;;;70.63;50.65;;;20.00;99.90;;;20.53;74.95;101537.59;5115354;28;20157;-74
2021/09/17 03:02:45;;;;;;;63.55;47.33;;;20.00;99.90;;;20.42;75.51;101529.88;5097038;28;20460;-74
2021/09/17 03:05:15;;;;;;;63.10;45.65;;;20.00;99.90;;;20.36;76.71;101531.91;5114951;28;20044;-74
2021/09/17 03:07:44;;;;;;;67.90;48.47;;;19.80;99.90;;;19.73;76.54;101422.97;5114868;28;20063;-73
2021/09/17 03:10:13;;;;;;;59.53;44.97;;;19.80;99.90;;;20.32;76.74;101524.88;5114749;28;20047;-74
2021/09/17 03:12:42;;;;;;;79.50;53.00;;;19.80;99.90;;;20.27;76.54;101519.66;5114818;28;20426;-74
2021/09/17 03:15:16;;;;;;;75.35;50.65;;;19.70;99.90;;;20.08;76.56;101485.38;5115003;28;20039;-74
2021/09/17 03:17:45;;;;;;;72.55;50.08;;;19.70;99.90;;;20.22;76.75;101507.31;5115284;28;20050;-74
2021/09/17 03:20:14;;;;;;;74.32;50.58;;;19.70;99.90;;;20.26;77.00;101520.59;5114876;28;20127;-74
2021/09/17 03:22:44;;;;;;;78.85;54.90;;;19.70;99.90;;;20.23;76.97;101515.31;5114588;28;20420;-74
2021/09/17 03:25:13;;;;;;;85.13;56.65;;;19.70;99.90;;;20.19;76.96;101505.59;5114555;28;20047;-73
2021/09/17 03:27:42;;;;;;;80.47;54.60;;;19.60;99.90;;;20.28;76.81;101510.69;5096555;28;20058;-73
2021/09/17 03:30:12;;;;;;;76.18;53.50;;;19.70;99.90;;;20.24;76.93;101514.41;5114552;28;20093;-74
2021/09/17 03:32:42;;;;;;;82.57;58.40;;;19.70;99.90;;;20.20;77.15;101510.06;5114679;28;20134;-73
2021/09/17 03:35:12;;;;;;;82.13;56.60;;;19.70;99.90;;;19.89;77.24;101454.69;5114972;28;20043;-74
2021/09/17 03:37:41;;;;;;;89.68;57.75;;;19.70;99.90;;;19.57;77.15;101397.56;5113958;28;20047;-74
2021/09/17 03:40:11;;;;;;;83.35;58.50;;;19.80;99.90;;;20.26;77.16;101509.84;5114581;28;20434;-74
2021/09/17 03:42:40;;;;;;;85.20;58.38;;;19.80;99.90;;;20.21;77.29;101511.78;5114596;28;20047;-73
2021/09/17 03:45:11;;;;;;;81.13;55.75;;;19.80;99.90;;;20.02;77.10;101482.88;5114328;28;20046;-73
2021/09/17 03:47:40;;;;;;;85.65;57.88;;;19.80;99.90;;;20.13;77.61;101508.44;5113893;28;20501;-74
2021/09/17 03:50:11;;;;;;;90.78;57.97;;;19.70;99.90;;;20.06;77.79;101506.91;5114139;28;20396;-73
2021/09/17 03:52:40;;;;;;;76.93;54.63;;;19.80;99.90;;;19.97;77.77;101496.47;5114329;28;20043;-74
2021/09/17 03:55:10;;;;;;;74.70;51.30;;;19.70;99.90;;;19.95;77.85;101498.34;5114004;28;20040;-74
2021/09/17 03:57:39;;;;;;;78.60;53.97;;;19.60;99.90;;;19.84;78.27;101502.31;5095999;28;20408;-74
2021/09/17 04:00:09;;;;;;;88.03;58.47;;;19.60;99.90;;;19.69;78.79;101484.84;5114204;28;20043;-73
2021/09/17 04:02:41;;;;;;;85.25;55.03;;;19.40;99.90;;;19.82;78.99;101496.09;5114524;28;20092;-74
2021/09/17 04:05:12;;;;;;;85.55;55.55;;;19.50;99.90;;;19.78;79.11;101500.69;5113808;28;20066;-74
2021/09/17 04:07:43;;;;;;;76.03;52.42;;;19.40;99.90;;;19.63;79.02;101468.94;5114145;28;20115;-73
2021/09/17 04:10:15;;;;;;;77.57;52.60;;;19.40;99.90;;;19.72;79.13;101495.53;5113864;28;20043;-74
2021/09/17 04:12:45;;;;;;;76.63;53.25;;;19.40;99.90;;;19.68;79.16;101491.16;5114035;28;20051;-74
2021/09/17 04:15:14;;;;;;;79.93;54.93;;;19.30;99.90;;;19.71;79.58;101500.00;5113931;28;20131;-73
2021/09/17 04:17:44;;;;;;;80.27;52.70;;;19.30;99.90;;;19.62;79.17;101488.69;5113910;28;20500;-73
2021/09/17 04:20:15;;;;;;;80.32;52.85;;;19.30;99.90;;;19.72;79.37;101495.53;5113859;28;20040;-73
2021/09/17 04:22:44;;;;;;;83.15;55.05;;;19.30;99.90;;;19.79;79.30;101497.06;5113801;28;20143;-73
2021/09/17 04:25:14;;;;;;;81.45;53.83;;;19.40;99.90;;;19.74;79.29;101496.34;5114085;28;20043;-73
2021/09/17 04:27:44;;;;;;;78.33;54.23;;;19.40;99.90;;;19.57;79.12;101464.66;5113760;28;20124;-73
2021/09/17 04:30:15;;;;;;;85.10;55.42;;;19.40;99.90;;;19.78;79.05;101492.66;5113588;28;20274;-73
2021/09/17 04:32:45;;;;;;;82.53;53.40;;;19.50;99.90;;;19.74;79.17;101499.88;5113747;28;20063;-74
2021/09/17 04:35:16;;;;;;;85.10;55.35;;;19.40;99.90;;;19.68;79.12;101475.06;5113715;28;20040;-74
2021/09/17 04:37:51;;;;;;;82.32;53.75;;;19.40;99.90;;;19.86;78.92;101500.44;5095498;28;20378;-73
2021/09/17 04:40:20;;;;;;;83.45;54.75;;;19.40;99.90;;;19.86;78.80;101509.34;5095485;28;20051;-73
2021/09/17 04:42:49;;;;;;;82.05;55.33;;;19.40;99.90;;;19.95;78.50;101492.09;5113918;28;20366;-73
2021/09/17 04:45:18;;;;;;;80.50;54.00;;;19.50;99.90;;;19.78;78.34;101463.97;5113618;28;20093;-74
2021/09/17 04:47:48;;;;;;;80.95;54.25;;;19.50;99.90;;;20.04;78.14;101497.13;5113047;28;20079;-74
2021/09/17 04:50:18;;;;;;;79.75;53.83;;;19.60;99.90;;;20.02;77.88;101494.50;5117902;28;20122;-74
2021/09/17 04:52:48;;;;;;;82.63;54.25;;;19.60;99.90;;;19.47;77.67;101392.56;5117550;28;20044;-73
2021/09/17 04:55:18;;;;;;;79.97;52.40;;;19.60;99.90;;;20.12;77.60;101495.97;5117437;28;20072;-74
2021/09/17 04:57:47;;;;;;;83.17;53.07;;;19.60;99.90;;;19.82;77.48;101453.13;5117749;28;20067;-74
2021/09/17 05:00:16;;;;;;;79.45;54.13;;;19.70;99.90;;;20.13;77.41;101500.41;5117340;28;20277;-74
2021/09/17 05:02:45;;;;;;;77.70;54.30;;;19.70;99.90;;;19.91;77.15;101464.44;5099056;28;20057;-74
2021/09/17 05:05:14;;;;;;;82.47;54.75;;;19.70;99.90;;;20.20;76.92;101510.06;5117856;28;20039;-73
2021/09/17 05:07:45;;;;;;;83.82;55.85;;;19.70;99.90;;;20.20;76.88;101504.69;5117488;28;20035;-74
2021/09/17 05:10:14;;;;;;;84.72;55.88;;;19.70;99.90;;;20.05;77.28;101494.44;5117265;28;20122;-74
2021/09/17 05:12:42;;;;;;;76.88;53.03;;;19.70;99.90;;;20.11;77.42;101504.94;5117360;28;20043;-73
2021/09/17 05:15:12;;;;;;;81.25;53.80;;;19.70;99.90;;;19.54;77.56;101420.94;5117142;28;20063;-73
2021/09/17 05:17:45;;;;;;;80.53;53.95;;;19.60;99.90;;;19.95;77.67;101492.09;5117386;28;20036;-73
2021/09/17 05:20:15;;;;;;;83.68;55.97;;;19.60;99.90;;;19.94;78.12;101510.00;5117186;28;20044;-73
2021/09/17 05:22:45;;;;;;;82.28;53.70;;;19.50;99.90;;;19.91;78.16;101498.47;5098880;28;20047;-73
2021/09/17 05:25:14;;;;;;;82.43;54.63;;;19.50;99.90;;;19.84;78.21;101500.47;5117203;28;20040;-74
2021/09/17 05:27:43;;;;;;;82.93;53.80;;;19.50;99.90;;;19.82;78.45;101501.47;5116764;28;20040;-74
2021/09/17 05:30:13;;;;;;;80.20;54.17;;;19.40;99.90;;;19.77;78.01;101498.94;5116575;28;20484;-74
2021/09/17 05:32:42;;;;;;;85.93;54.63;;;19.30;99.90;;;19.75;78.00;101498.09;5116601;28;20048;-74
2021/09/17 05:35:11;;;;;;;82.80;54.63;;;19.30;99.90;;;19.70;77.75;101503.59;5116874;28;20055;-74
2021/09/17 05:37:40;;;;;;;94.20;57.30;;;19.30;99.90;;;19.69;78.06;101490.22;5116587;28;20039;-74
2021/09/17 05:40:12;;;;;;;87.07;57.53;;;19.30;99.90;;;19.69;78.28;101491.13;5116489;28;20055;-75
2021/09/17 05:42:41;;;;;;;92.78;59.38;;;19.30;99.90;;;19.68;78.20;101493.84;5098522;28;20047;-74
2021/09/17 05:45:12;;;;;;;87.50;57.67;;;19.20;99.90;;;19.58;78.16;101478.97;5116363;28;20435;-73
2021/09/17 05:47:44;;;;;;;94.88;60.30;;;19.30;99.90;;;19.68;78.11;101497.44;5097941;28;20066;-73
2021/09/17 05:50:14;;;;;;;91.22;57.70;;;19.30;99.90;;;19.45;78.32;101477.59;5116359;28;20074;-74
2021/09/17 05:52:43;;;;;;;87.97;57.35;;;19.20;99.90;;;19.42;78.56;101483.03;5116280;28;20040;-74
2021/09/17 05:55:14;;;;;;;95.65;60.10;;;19.20;99.90;;;19.40;78.64;101482.22;5116240;28;20051;-74
2021/09/17 05:57:42;;;;;;;;;;;19.10;99.90;;;19.43;78.56;101492.88;5116629;28;20040;-74
2021/09/17 06:00:13;;;;;;;98.40;60.03;;;19.10;99.90;;;19.55;78.43;101503.22;5115760;28;19920;-74
2021/09/17 06:02:42;;;;;;;91.85;59.72;;;19.10;99.90;;;19.45;78.50;101475.78;5116488;28;20050;-74
2021/09/17 06:05:13;;;;;;;92.80;60.58;;;19.10;99.90;;;19.61;78.52;101503.00;5116250;28;20048;-73
2021/09/17 06:07:42;;;;;;;91.63;58.30;;;19.20;99.90;;;19.66;78.14;101503.75;5116654;28;20047;-73
2021/09/17 06:10:14;;;;;;;91.15;59.45;;;19.20;99.90;;;19.18;77.93;101405.97;5115990;28;20073;-73
2021/09/17 06:12:43;;;;;;;90.85;58.95;;;19.30;99.90;;;19.71;77.73;101500.00;5116237;28;20396;-73
2021/09/17 06:15:16;;;;;;;94.28;59.30;;;19.20;99.90;;;19.64;77.57;101487.72;5115852;28;20062;-73
2021/09/17 06:17:45;;;;;;;94.15;59.63;;;19.30;99.90;;;19.69;77.66;101500.97;5097823;28;20044;-73
2021/09/17 06:20:15;;;;;;;95.95;59.03;;;19.30;99.90;;;19.41;77.65;101446.41;5116053;28;20062;-73
2021/09/17 06:22:46;;;;;;;93.45;59.55;;;19.30;99.90;;;19.48;77.31;101446.19;5115791;28;20416;-73
2021/09/17 06:25:16;;;;;;;;;;;19.30;99.90;;;19.80;77.48;101512.28;5116370;28;20048;-73
2021/09/17 06:27:45;;;;;;;93.55;59.15;;;19.40;99.90;;;19.71;77.63;101489.25;5115929;28;19920;-73
2021/09/17 06:30:15;;;;;;;93.47;60.22;;;19.40;99.90;;;19.84;77.42;101502.31;5115516;28;20035;-73
2021/09/17 06:32:45;;;;;;;97.47;61.28;;;19.40;99.90;;;19.10;77.34;101368.69;5115777;28;20040;-73
2021/09/17 06:35:15;;;;;;;93.25;60.85;;;19.40;99.90;;;19.80;77.42;101497.00;5115722;28;20062;-73
2021/09/17 06:37:50;;;;;;;92.72;59.70;;;19.40;99.90;;;19.90;77.64;101505.66;5097390;28;20044;-74
2021/09/17 06:40:22;;;;;;;96.50;61.65;;;19.40;99.90;;;19.94;77.57;101519.88;5115854;28;20040;-73
2021/09/17 06:42:52;;;;;;;93.07;61.30;;;19.40;99.90;;;19.82;77.83;101493.41;5115682;28;20049;-73
2021/09/17 06:45:21;;;;;;;89.50;59.28;;;19.50;99.90;;;19.91;77.72;101495.78;5097030;28;20514;-73
2021/09/17 06:47:53;;;;;;;95.15;62.42;;;19.50;99.90;;;19.96;78.13;101507.25;5115127;28;20066;-73
2021/09/17 06:50:27;;;;;;;96.60;59.70;;;19.50;99.90;;;19.91;78.19;101490.41;5096709;28;20047;-73
2021/09/17 06:52:59;;;;;;;98.47;61.10;;;19.50;99.90;;;19.44;78.51;101435.56;5115906;28;20131;-82
2021/09/17 06:55:31;;;;;;;98.90;62.10;;;19.60;99.90;;;20.09;79.03;101512.16;5115790;28;20051;-76
2021/09/17 06:58:03;;;;;;;103.00;62.88;;;19.60;99.90;;;19.10;79.03;101333.81;5114976;28;20097;-79
2021/09/17 07:00:35;;;;;;;96.13;63.15;;;19.70;99.90;;;19.95;78.94;101471.47;5116728;28;20486;-79
2021/09/17 07:03:05;;;;;;;96.88;63.28;;;19.70;99.90;;;20.26;79.22;101519.72;5115302;28;20058;-77
2021/09/17 07:05:35;;;;;;;103.40;65.47;;;19.80;99.90;;;20.19;79.20;101508.28;5115085;28;20051;-81
2021/09/17 07:08:07;;;;;;;100.13;65.67;;;19.80;99.90;;;20.28;79.66;101517.84;5114900;28;20393;-78
2021/09/17 07:10:41;;;;;;;103.85;66.43;;;19.80;99.90;;;20.09;80.30;101506.78;5114983;28;20273;-84
2021/09/17 07:13:11;;;;;;;112.78;67.78;;;19.80;99.90;;;19.73;80.69;101438.19;5113781;28;20044;-78
2021/09/17 07:15:40;;;;;;;110.60;65.70;;;19.70;99.90;;;20.14;81.18;101520.97;5115159;28;20050;-75
2021/09/17 07:18:10;;;;;;;112.22;67.15;;;19.70;99.90;;;20.18;81.07;101517.28;5114712;28;20130;-81
2021/09/17 07:20:40;;;;;;;115.32;67.38;;;19.70;99.90;;;20.18;81.34;101514.59;5114745;28;20043;-80
2021/09/17 07:23:10;;;;;;;116.40;66.93;;;19.70;99.90;;;20.18;81.64;101514.59;5115090;28;20054;-77
2021/09/17 07:25:41;;;;;;;115.18;67.22;;;19.70;99.90;;;20.13;81.84;101519.19;5114663;28;20412;-83
2021/09/17 07:28:11;;;;;;;116.03;66.80;;;19.70;99.90;;;20.02;82.06;101507.94;5114822;28;20035;-79
2021/09/17 07:30:40;;;;;;;118.13;66.60;;;19.60;99.90;;;20.19;82.02;101513.66;5114458;28;20047;-78
2021/09/17 07:33:09;;;;;;;115.50;65.38;;;19.70;99.90;;;20.19;82.12;101513.66;5114635;28;20047;-81
2021/09/17 07:35:38;;;;;;;111.40;62.67;;;19.70;99.90;;;20.21;82.22;101509.13;5114595;28;20039;-80
2021/09/17 07:38:07;;;;;;;117.43;67.38;;;19.70;99.90;;;20.17;82.25;101512.78;5114463;28;20382;-76
2021/09/17 07:40:36;;;;;;;111.88;66.18;;;19.70;99.90;;;20.23;82.61;101507.25;5114746;28;20044;-71
2021/09/17 07:43:06;;;;;;;118.07;67.80;;;19.80;99.90;;;20.26;82.45;101517.03;5113915;28;20489;-73
2021/09/17 07:45:36;;;;;;;119.28;67.88;;;19.80;99.90;;;20.04;82.72;101487.28;5114484;28;20361;-77
2021/09/17 07:48:06;;;;;;;114.45;67.20;;;19.80;99.90;;;20.23;82.89;101509.94;5113939;28;20058;-72
2021/09/17 07:50:35;;;;;;;115.53;64.87;;;19.80;99.90;;;20.37;82.80;101517.53;5113920;28;20054;-73
2021/09/17 07:53:04;;;;;;;114.18;65.93;;;19.90;99.90;;;20.57;82.84;101520.41;5095743;28;20043;-70
2021/09/17 07:55:34;;;;;;;107.95;63.90;;;20.10;99.90;;;20.77;82.63;101517.03;5114033;28;20509;-70
2021/09/17 07:58:05;;;;;;;106.20;62.25;;;20.30;99.90;;;20.91;81.23;101503.94;5113969;28;20031;-70
2021/09/17 08:00:35;;;;;;;100.03;60.42;;;20.50;99.90;;;20.97;80.45;101506.41;5114221;28;20086;-68
2021/09/17 08:03:05;;;;;;;114.00;66.45;;;20.60;99.90;;;21.05;80.15;101512.41;5114189;28;20055;-70
2021/09/17 08:05:34;;;;;;;103.90;64.45;;;20.60;99.90;;;21.07;79.90;101518.63;5114031;28;20067;-70
2021/09/17 08:08:04;;;;;;;104.20;61.33;;;20.70;99.90;;;21.14;79.94;101520.13;5095697;28;20122;-70
2021/09/17 08:10:33;;;;;;;100.50;61.88;;;20.70;99.90;;;21.16;79.17;101520.97;5113965;28;20136;-70
2021/09/17 08:13:02;;;;;;;99.63;60.65;;;20.70;99.90;;;21.28;79.08;101507.03;5113854;28;20040;-69
2021/09/17 08:15:31;;;;;;;97.13;59.85;;;20.90;99.90;;;21.36;78.32;101502.25;5114002;28;20044;-76
2021/09/17 08:18:01;;;;;;;92.20;57.47;;;21.00;99.90;;;21.72;77.50;101521.47;5095716;28;20039;-70
2021/09/17 08:20:30;;;;;;;90.03;60.28;;;21.30;99.90;;;21.82;76.74;101491.44;5113970;28;20057;-70
2021/09/17 08:23:00;;;;;;;87.88;57.28;;;21.50;99.90;;;22.02;75.42;101494.19;5113351;28;20404;-69
2021/09/17 08:25:29;;;;;;;90.80;57.65;;;21.70;99.90;;;22.30;74.90;101532.53;5113490;28;20040;-71
2021/09/17 08:27:57;;;;;;;81.68;55.17;;;21.90;99.90;;;22.39;74.39;101529.47;5113457;28;20070;-70
2021/09/17 08:30:26;;;;;;;79.95;52.38;;;22.00;99.90;;;22.51;73.95;101532.56;5113734;28;20381;-74
2021/09/17 08:32:58;;;;;;;73.32;49.13;;;22.10;99.90;;;22.54;73.56;101533.31;5113740;28;20439;-71
2021/09/17 08:35:28;;;;;;;73.43;48.75;;;22.10;99.90;;;22.65;72.68;101528.34;5113827;28;20314;-71
2021/09/17 08:37:58;;;;;;;66.53;45.22;;;22.20;99.90;;;22.62;72.30;101536.59;5114031;28;20051;-76
2021/09/17 08:40:28;;;;;;;68.70;46.08;;;22.20;99.90;;;22.63;72.26;101523.97;5113360;28;20119;-73
2021/09/17 08:42:59;;;;;;;62.10;42.38;;;22.30;99.90;;;22.58;71.49;101537.66;5113300;28;20046;-75
2021/09/17 08:45:30;;;;;;;64.93;45.80;;;22.30;99.90;;;22.71;71.63;101533.47;5113976;28;20152;-81
2021/09/17 08:47:59;;;;;;;64.13;44.88;;;22.30;99.90;;;22.78;71.82;101531.41;5113110;28;20048;-72
2021/09/17 08:50:33;;;;;;;61.95;42.67;;;22.40;99.90;;;22.82;71.01;101541.97;5113099;28;20485;-76
2021/09/17 08:53:03;;;;;;;60.50;42.08;;;22.40;99.90;;;22.89;70.62;101534.50;5113612;28;20046;-75
2021/09/17 08:55:34;;;;;;;62.75;41.50;;;22.50;99.90;;;22.93;70.67;101541.50;5113388;28;20042;-80
2021/09/17 08:58:03;;;;;;;59.80;41.58;;;22.50;99.90;;;22.88;69.80;101530.91;5113074;28;20047;-74
2021/09/17 09:00:44;;;;;;;63.67;43.08;;;22.50;99.90;;;22.96;70.00;101544.94;5113392;28;20097;-80
2021/09/17 09:03:29;;;;;;;55.35;40.17;;;22.60;99.90;;;23.24;69.83;101536.47;5113395;28;20051;-84
2021/09/17 09:06:12;;;;;;;59.95;38.63;;;22.80;99.90;;;23.41;68.73;101541.13;5113068;28;20063;-81
2021/09/17 09:08:43;;;;;;;57.53;41.42;;;23.00;99.90;;;23.74;69.38;101548.50;5113102;28;20544;-74
2021/09/17 09:11:25;;;;;;;47.00;35.53;;;23.30;99.90;;;23.96;67.43;101554.63;5113497;28;20043;-80
2021/09/17 09:14:07;;;;;;;42.55;31.42;;;23.50;99.90;;;24.06;66.53;101547.84;5113183;28;20047;-76
2021/09/17 09:16:39;;;;;;;43.65;30.90;;;23.70;99.90;;;23.93;65.44;101522.34;5113725;28;20086;-77
2021/09/17 09:19:24;;;;;;;45.28;32.35;;;23.70;99.90;;;24.18;65.35;101555.34;5095028;28;20078;-70
2021/09/17 09:22:11;;;;;;;41.30;30.92;;;23.80;99.90;;;24.20;64.96;101557.13;5113299;28;20038;-72
2021/09/17 09:24:43;;;;;;;41.50;31.25;;;23.80;99.90;;;24.31;64.32;101558.34;5113251;28;20088;-72
2021/09/17 09:27:15;;;;;;;42.67;31.17;;;23.90;99.90;;;24.30;64.62;101558.41;5113484;28;20400;-72
2021/09/17 09:29:47;;;;;;;44.35;32.55;;;23.90;99.90;;;24.45;64.03;101550.38;5113339;28;20038;-72
2021/09/17 09:32:27;;;;;;;43.33;30.92;;;24.00;99.90;;;24.65;63.86;101554.78;5112901;28;20047;-71
2021/09/17 09:34:58;;;;;;;45.25;32.22;;;24.20;99.90;;;24.78;63.52;101558.63;5112878;28;20147;-72
2021/09/17 09:37:32;;;;;;;40.13;30.88;;;24.40;99.90;;;24.86;63.56;101553.69;5116759;28;20078;-74
2021/09/17 09:40:05;;;;;;;41.65;29.38;;;24.50;99.90;;;24.82;62.68;101511.50;5098562;28;20043;-72
2021/09/17 09:42:38;;;;;;;40.08;30.83;;;24.60;99.90;;;25.21;62.07;101554.53;5116591;28;20039;-70
2021/09/17 09:45:13;;;;;;;40.70;30.25;;;24.80;99.90;;;25.07;61.45;101527.34;5116354;28;20036;-72
2021/09/17 09:47:45;;;;;;;39.58;29.83;;;24.90;99.90;;;25.36;60.90;101562.69;5116535;28;20075;-73
2021/09/17 09:50:18;;;;;;;42.90;28.83;;;24.90;99.90;;;25.59;60.71;101540.66;5117022;28;20039;-74
2021/09/17 09:52:49;;;;;;;35.72;28.55;;;25.20;99.90;;;25.79;60.19;101545.84;5116732;28;20397;-74
2021/09/17 09:55:18;;;;;;;36.28;27.98;;;25.50;99.90;;;25.14;59.78;101415.88;5116322;28;20043;-73
2021/09/17 09:57:47;;;;;;;34.85;26.67;;;25.50;99.90;;;25.84;59.81;101549.16;5116323;28;20039;-73
2021/09/17 10:00:20;;;;;;;33.42;26.50;;;25.50;99.90;;;25.92;59.07;101546.00;5116298;28;20050;-73
2021/09/17 10:02:49;;;;;;;28.92;22.20;;;25.60;99.90;;;25.57;59.23;101552.56;5116197;28;20055;-73
2021/09/17 10:05:25;;;;;;;26.08;20.13;;;25.30;99.90;;;25.46;58.94;101533.28;5116153;28;20039;-73
2021/09/17 10:07:57;;;;;;;19.35;14.70;;;25.20;99.90;;;25.45;58.41;101558.66;5116806;28;20048;-72
2021/09/17 10:10:27;;;;;;;14.88;11.68;;;25.10;99.90;;;25.39;58.86;101557.16;5116282;28;20043;-74
2021/09/17 10:12:55;;;;;;;10.52;7.90;;;25.00;99.90;;;25.47;58.94;101549.50;5115977;28;20036;-74